sensor_id;sensor_type;location;lat;lon;timestamp;temperature;humidity
64499;SHT31;51087;55.718;21.122;2022-11-11T00:01:06;11.82;98.04
64499;SHT31;51087;55.718;21.122;2022-11-11T00:03:31;11.83;97.83
64499;SHT31;51087;55.718;21.122;2022-11-11T00:06:04;11.85;97.88
64499;SHT31;51087;55.718;21.122;2022-11-11T00:08:30;11.83;98.19
64499;SHT31;51087;55.718;21.122;2022-11-11T00:11:03;11.82;98.08
64499;SHT31;51087;55.718;21.122;2022-11-11T00:13:31;11.82;97.74
64499;SHT31;51087;55.718;21.122;2022-11-11T00:16:03;11.85;97.84
64499;SHT31;51087;55.718;21.122;2022-11-11T00:18:29;11.85;97.56
64499;SHT31;51087;55.718;21.122;2022-11-11T00:21:13;11.85;97.69
64499;SHT31;51087;55.718;21.122;2022-11-11T00:23:57;11.88;97.71
64499;SHT31;51087;55.718;21.122;2022-11-11T00:26:41;11.89;97.93
64499;SHT31;51087;55.718;21.122;2022-11-11T00:29:06;11.86;98.36
64499;SHT31;51087;55.718;21.122;2022-11-11T00:31:34;11.85;98.80
64499;SHT31;51087;55.718;21.122;2022-11-11T00:33:59;11.81;99.01
64499;SHT31;51087;55.718;21.122;2022-11-11T00:36:25;11.85;99.20
64499;SHT31;51087;55.718;21.122;2022-11-11T00:38:50;11.83;99.44
64499;SHT31;51087;55.718;21.122;2022-11-11T00:41:22;11.83;99.59
64499;SHT31;51087;55.718;21.122;2022-11-11T00:43:48;11.79;99.99
64499;SHT31;51087;55.718;21.122;2022-11-11T00:46:15;11.72;99.99
64499;SHT31;51087;55.718;21.122;2022-11-11T00:48:59;11.77;99.99
64499;SHT31;51087;55.718;21.122;2022-11-11T00:51:43;11.74;99.99
64499;SHT31;51087;55.718;21.122;2022-11-11T00:54:09;11.74;99.99
64499;SHT31;51087;55.718;21.122;2022-11-11T00:56:35;11.75;99.99
64499;SHT31;51087;55.718;21.122;2022-11-11T00:59:04;11.78;99.94
64499;SHT31;51087;55.718;21.122;2022-11-11T01:01:32;11.78;99.99
64499;SHT31;51087;55.718;21.122;2022-11-11T01:03:58;11.78;99.99
64499;SHT31;51087;55.718;21.122;2022-11-11T01:06:24;11.78;99.99
64499;SHT31;51087;55.718;21.122;2022-11-11T01:08:50;11.72;99.99
64499;SHT31;51087;55.718;21.122;2022-11-11T01:11:18;11.72;99.99
64499;SHT31;51087;55.718;21.122;2022-11-11T01:13:44;11.71;99.99
64499;SHT31;51087;55.718;21.122;2022-11-11T01:16:12;11.69;99.99
64499;SHT31;51087;55.718;21.122;2022-11-11T01:18:38;11.64;99.99
64499;SHT31;51087;55.718;21.122;2022-11-11T01:21:07;11.64;99.99
64499;SHT31;51087;55.718;21.122;2022-11-11T01:23:36;11.58;99.99
64499;SHT31;51087;55.718;21.122;2022-11-11T01:26:05;11.58;99.99
64499;SHT31;51087;55.718;21.122;2022-11-11T01:28:31;11.57;99.99
64499;SHT31;51087;55.718;21.122;2022-11-11T01:31:04;11.52;99.99
64499;SHT31;51087;55.718;21.122;2022-11-11T01:33:30;11.50;99.99
64499;SHT31;51087;55.718;21.122;2022-11-11T01:36:05;11.43;99.99
64499;SHT31;51087;55.718;21.122;2022-11-11T01:38:31;11.40;99.99
64499;SHT31;51087;55.718;21.122;2022-11-11T01:40:56;11.37;99.99
64499;SHT31;51087;55.718;21.122;2022-11-11T01:43:23;11.31;99.99
64499;SHT31;51087;55.718;21.122;2022-11-11T01:45:57;11.28;99.99
64499;SHT31;51087;55.718;21.122;2022-11-11T01:51:20;11.28;99.99
64499;SHT31;51087;55.718;21.122;2022-11-11T01:53:51;11.27;99.99
64499;SHT31;51087;55.718;21.122;2022-11-11T01:56:18;11.27;99.99
64499;SHT31;51087;55.718;21.122;2022-11-11T01:58:43;11.27;99.99
64499;SHT31;51087;55.718;21.122;2022-11-11T02:01:09;11.27;99.99
64499;SHT31;51087;55.718;21.122;2022-11-11T02:03:39;11.27;99.99
64499;SHT31;51087;55.718;21.122;2022-11-11T02:06:06;11.26;99.99
64499;SHT31;51087;55.718;21.122;2022-11-11T02:08:34;11.22;99.99
64499;SHT31;51087;55.718;21.122;2022-11-11T02:11:15;11.26;99.99
64499;SHT31;51087;55.718;21.122;2022-11-11T02:14:02;11.22;99.99
64499;SHT31;51087;55.718;21.122;2022-11-11T02:16:54;11.20;99.99
64499;SHT31;51087;55.718;21.122;2022-11-11T02:19:28;11.24;99.99
64499;SHT31;51087;55.718;21.122;2022-11-11T02:21:59;11.23;99.99
64499;SHT31;51087;55.718;21.122;2022-11-11T02:24:26;11.22;99.99
64499;SHT31;51087;55.718;21.122;2022-11-11T02:26:54;11.24;99.99
64499;SHT31;51087;55.718;21.122;2022-11-11T02:29:21;11.24;99.99
64499;SHT31;51087;55.718;21.122;2022-11-11T02:31:47;11.26;99.99
64499;SHT31;51087;55.718;21.122;2022-11-11T02:34:13;11.30;99.99
64499;SHT31;51087;55.718;21.122;2022-11-11T02:36:39;11.30;99.99
64499;SHT31;51087;55.718;21.122;2022-11-11T02:39:05;11.30;99.99
64499;SHT31;51087;55.718;21.122;2022-11-11T02:41:30;11.33;99.99
64499;SHT31;51087;55.718;21.122;2022-11-11T02:44:14;11.35;99.99
64499;SHT31;51087;55.718;21.122;2022-11-11T02:46:39;11.33;99.99
64499;SHT31;51087;55.718;21.122;2022-11-11T02:49:05;11.28;99.99
64499;SHT31;51087;55.718;21.122;2022-11-11T02:51:30;11.26;99.99
64499;SHT31;51087;55.718;21.122;2022-11-11T02:53:56;11.26;99.99
64499;SHT31;51087;55.718;21.122;2022-11-11T02:56:23;11.26;99.99
64499;SHT31;51087;55.718;21.122;2022-11-11T02:59:07;11.27;99.99
64499;SHT31;51087;55.718;21.122;2022-11-11T03:01:33;11.24;99.99
64499;SHT31;51087;55.718;21.122;2022-11-11T03:03:58;11.26;99.99
64499;SHT31;51087;55.718;21.122;2022-11-11T03:06:24;11.28;99.99
64499;SHT31;51087;55.718;21.122;2022-11-11T03:08:49;11.30;99.99
64499;SHT31;51087;55.718;21.122;2022-11-11T03:11:14;11.26;99.99
64499;SHT31;51087;55.718;21.122;2022-11-11T03:13:40;11.23;99.99
64499;SHT31;51087;55.718;21.122;2022-11-11T03:16:05;11.23;99.99
64499;SHT31;51087;55.718;21.122;2022-11-11T03:18:51;11.19;99.99
64499;SHT31;51087;55.718;21.122;2022-11-11T03:21:16;11.16;99.99
64499;SHT31;51087;55.718;21.122;2022-11-11T03:23:42;11.20;99.99
64499;SHT31;51087;55.718;21.122;2022-11-11T03:26:07;11.20;99.99
64499;SHT31;51087;55.718;21.122;2022-11-11T03:28:33;11.26;99.99
64499;SHT31;51087;55.718;21.122;2022-11-11T03:30:58;11.23;99.99
64499;SHT31;51087;55.718;21.122;2022-11-11T03:33:24;11.23;99.99
64499;SHT31;51087;55.718;21.122;2022-11-11T03:35:49;11.22;99.99
64499;SHT31;51087;55.718;21.122;2022-11-11T03:38:14;11.26;99.99
64499;SHT31;51087;55.718;21.122;2022-11-11T03:40:52;11.22;99.99
64499;SHT31;51087;55.718;21.122;2022-11-11T03:43:19;11.26;99.99
64499;SHT31;51087;55.718;21.122;2022-11-11T03:45:45;11.28;99.99
64499;SHT31;51087;55.718;21.122;2022-11-11T03:48:11;11.26;99.99
64499;SHT31;51087;55.718;21.122;2022-11-11T03:50:36;11.23;99.99
64499;SHT31;51087;55.718;21.122;2022-11-11T03:53:02;11.30;99.99
64499;SHT31;51087;55.718;21.122;2022-11-11T03:55:28;11.34;99.99
64499;SHT31;51087;55.718;21.122;2022-11-11T03:57:54;11.33;99.99
64499;SHT31;51087;55.718;21.122;2022-11-11T04:00:21;11.31;99.99
64499;SHT31;51087;55.718;21.122;2022-11-11T04:02:48;11.28;99.99
64499;SHT31;51087;55.718;21.122;2022-11-11T04:05:32;11.33;99.99
64499;SHT31;51087;55.718;21.122;2022-11-11T04:08:17;11.34;99.99
64499;SHT31;51087;55.718;21.122;2022-11-11T04:11:41;11.38;99.99
64499;SHT31;51087;55.718;21.122;2022-11-11T04:14:09;11.44;99.99
64499;SHT31;51087;55.718;21.122;2022-11-11T04:16:54;11.44;99.99
64499;SHT31;51087;55.718;21.122;2022-11-11T04:19:19;11.43;99.99
64499;SHT31;51087;55.718;21.122;2022-11-11T04:22:04;11.41;99.99
64499;SHT31;51087;55.718;21.122;2022-11-11T04:24:29;11.41;99.99
64499;SHT31;51087;55.718;21.122;2022-11-11T04:27:16;11.38;99.99
64499;SHT31;51087;55.718;21.122;2022-11-11T04:29:43;11.38;99.99
64499;SHT31;51087;55.718;21.122;2022-11-11T04:32:10;11.38;99.99
64499;SHT31;51087;55.718;21.122;2022-11-11T04:34:56;11.37;99.99
64499;SHT31;51087;55.718;21.122;2022-11-11T04:37:23;11.40;99.99
64499;SHT31;51087;55.718;21.122;2022-11-11T04:39:49;11.43;99.99
64499;SHT31;51087;55.718;21.122;2022-11-11T04:42:33;11.43;99.99
64499;SHT31;51087;55.718;21.122;2022-11-11T04:45:00;11.40;99.99
64499;SHT31;51087;55.718;21.122;2022-11-11T04:48:00;11.45;99.99
64499;SHT31;51087;55.718;21.122;2022-11-11T04:50:28;11.40;99.99
64499;SHT31;51087;55.718;21.122;2022-11-11T04:52:54;11.40;99.99
64499;SHT31;51087;55.718;21.122;2022-11-11T04:55:20;11.41;99.99
64499;SHT31;51087;55.718;21.122;2022-11-11T04:58:04;11.37;99.99
64499;SHT31;51087;55.718;21.122;2022-11-11T05:00:30;11.38;99.99
64499;SHT31;51087;55.718;21.122;2022-11-11T05:02:56;11.35;99.99
64499;SHT31;51087;55.718;21.122;2022-11-11T05:08:41;11.44;99.99
64499;SHT31;51087;55.718;21.122;2022-11-11T05:11:33;11.45;99.99
64499;SHT31;51087;55.718;21.122;2022-11-11T05:14:04;11.47;99.99
64499;SHT31;51087;55.718;21.122;2022-11-11T05:16:50;11.45;99.99
64499;SHT31;51087;55.718;21.122;2022-11-11T05:19:35;11.43;99.99
64499;SHT31;51087;55.718;21.122;2022-11-11T05:22:41;11.43;99.99
64499;SHT31;51087;55.718;21.122;2022-11-11T05:25:08;11.43;99.99
64499;SHT31;51087;55.718;21.122;2022-11-11T05:27:50;11.40;99.99
64499;SHT31;51087;55.718;21.122;2022-11-11T05:30:16;11.41;99.99
64499;SHT31;51087;55.718;21.122;2022-11-11T05:32:42;11.44;99.99
64499;SHT31;51087;55.718;21.122;2022-11-11T05:35:09;11.38;99.99
64499;SHT31;51087;55.718;21.122;2022-11-11T05:37:35;11.38;99.99
64499;SHT31;51087;55.718;21.122;2022-11-11T05:40:04;11.40;99.99
64499;SHT31;51087;55.718;21.122;2022-11-11T05:42:30;11.44;99.99
64499;SHT31;51087;55.718;21.122;2022-11-11T05:44:56;11.45;99.99
64499;SHT31;51087;55.718;21.122;2022-11-11T05:47:21;11.50;99.99
64499;SHT31;51087;55.718;21.122;2022-11-11T05:49:47;11.51;99.99
64499;SHT31;51087;55.718;21.122;2022-11-11T05:52:14;11.57;99.99
64499;SHT31;51087;55.718;21.122;2022-11-11T05:54:43;11.51;99.99
64499;SHT31;51087;55.718;21.122;2022-11-11T05:57:09;11.51;99.99
64499;SHT31;51087;55.718;21.122;2022-11-11T05:59:34;11.55;99.99
64499;SHT31;51087;55.718;21.122;2022-11-11T06:02:00;11.52;99.99
64499;SHT31;51087;55.718;21.122;2022-11-11T06:04:25;11.48;99.99
64499;SHT31;51087;55.718;21.122;2022-11-11T06:06:52;11.48;99.99
64499;SHT31;51087;55.718;21.122;2022-11-11T06:09:17;11.45;99.99
64499;SHT31;51087;55.718;21.122;2022-11-11T06:11:43;11.51;99.99
64499;SHT31;51087;55.718;21.122;2022-11-11T06:14:08;11.48;99.99
64499;SHT31;51087;55.718;21.122;2022-11-11T06:16:33;11.52;99.99
64499;SHT31;51087;55.718;21.122;2022-11-11T06:18:59;11.50;99.99
64499;SHT31;51087;55.718;21.122;2022-11-11T06:21:25;11.50;99.99
64499;SHT31;51087;55.718;21.122;2022-11-11T06:23:51;11.50;99.99
64499;SHT31;51087;55.718;21.122;2022-11-11T06:26:17;11.54;99.99
64499;SHT31;51087;55.718;21.122;2022-11-11T06:31:18;11.55;99.99
64499;SHT31;51087;55.718;21.122;2022-11-11T06:33:44;11.58;99.99
64499;SHT31;51087;55.718;21.122;2022-11-11T06:36:12;11.58;99.99
64499;SHT31;51087;55.718;21.122;2022-11-11T06:38:38;11.54;99.99
64499;SHT31;51087;55.718;21.122;2022-11-11T06:41:04;11.54;99.99
64499;SHT31;51087;55.718;21.122;2022-11-11T06:43:29;11.58;99.99
64499;SHT31;51087;55.718;21.122;2022-11-11T06:45:55;11.55;99.99
64499;SHT31;51087;55.718;21.122;2022-11-11T06:48:22;11.55;99.99
64499;SHT31;51087;55.718;21.122;2022-11-11T06:50:48;11.58;99.99
64499;SHT31;51087;55.718;21.122;2022-11-11T06:53:19;11.58;99.99
64499;SHT31;51087;55.718;21.122;2022-11-11T06:55:45;11.62;99.99
64499;SHT31;51087;55.718;21.122;2022-11-11T06:58:16;11.67;99.99
64499;SHT31;51087;55.718;21.122;2022-11-11T07:00:42;11.67;99.99
64499;SHT31;51087;55.718;21.122;2022-11-11T07:03:10;11.64;99.99
64499;SHT31;51087;55.718;21.122;2022-11-11T07:05:37;11.64;99.99
64499;SHT31;51087;55.718;21.122;2022-11-11T07:08:04;11.62;99.99
64499;SHT31;51087;55.718;21.122;2022-11-11T07:10:31;11.60;99.99
64499;SHT31;51087;55.718;21.122;2022-11-11T07:12:57;11.58;99.99
64499;SHT31;51087;55.718;21.122;2022-11-11T07:15:23;11.58;99.99
64499;SHT31;51087;55.718;21.122;2022-11-11T07:17:48;11.62;99.99
64499;SHT31;51087;55.718;21.122;2022-11-11T07:20:14;11.61;99.99
64499;SHT31;51087;55.718;21.122;2022-11-11T07:22:39;11.67;99.99
64499;SHT31;51087;55.718;21.122;2022-11-11T07:25:05;11.64;99.99
64499;SHT31;51087;55.718;21.122;2022-11-11T07:27:31;11.68;99.99
64499;SHT31;51087;55.718;21.122;2022-11-11T07:30:00;11.68;99.99
64499;SHT31;51087;55.718;21.122;2022-11-11T07:32:25;11.69;99.99
64499;SHT31;51087;55.718;21.122;2022-11-11T07:34:51;11.71;99.99
64499;SHT31;51087;55.718;21.122;2022-11-11T07:37:16;11.67;99.99
64499;SHT31;51087;55.718;21.122;2022-11-11T07:39:42;11.69;99.99
64499;SHT31;51087;55.718;21.122;2022-11-11T07:42:07;11.69;99.99
64499;SHT31;51087;55.718;21.122;2022-11-11T07:44:32;11.67;99.99
64499;SHT31;51087;55.718;21.122;2022-11-11T07:46:58;11.67;99.99
64499;SHT31;51087;55.718;21.122;2022-11-11T07:49:23;11.64;99.99
64499;SHT31;51087;55.718;21.122;2022-11-11T07:51:49;11.62;99.99
64499;SHT31;51087;55.718;21.122;2022-11-11T07:54:14;11.62;99.99
64499;SHT31;51087;55.718;21.122;2022-11-11T07:56:39;11.64;99.99
64499;SHT31;51087;55.718;21.122;2022-11-11T07:59:07;11.60;99.99
64499;SHT31;51087;55.718;21.122;2022-11-11T08:01:33;11.58;99.99
64499;SHT31;51087;55.718;21.122;2022-11-11T08:03:58;11.52;99.99
64499;SHT31;51087;55.718;21.122;2022-11-11T08:06:24;11.52;99.99
64499;SHT31;51087;55.718;21.122;2022-11-11T08:08:49;11.52;99.99
64499;SHT31;51087;55.718;21.122;2022-11-11T08:11:15;11.55;99.99
64499;SHT31;51087;55.718;21.122;2022-11-11T08:13:41;11.52;99.99
64499;SHT31;51087;55.718;21.122;2022-11-11T08:16:13;11.52;99.99
64499;SHT31;51087;55.718;21.122;2022-11-11T08:18:40;11.52;99.99
64499;SHT31;51087;55.718;21.122;2022-11-11T08:21:06;11.54;99.99
64499;SHT31;51087;55.718;21.122;2022-11-11T08:23:32;11.55;99.99
64499;SHT31;51087;55.718;21.122;2022-11-11T08:28:24;11.60;99.99
64499;SHT31;51087;55.718;21.122;2022-11-11T08:30:49;11.61;99.99
64499;SHT31;51087;55.718;21.122;2022-11-11T08:33:14;11.62;99.99
64499;SHT31;51087;55.718;21.122;2022-11-11T08:35:40;11.62;99.99
64499;SHT31;51087;55.718;21.122;2022-11-11T08:38:05;11.61;99.99
64499;SHT31;51087;55.718;21.122;2022-11-11T08:40:31;11.60;99.99
64499;SHT31;51087;55.718;21.122;2022-11-11T08:42:57;11.61;99.99
64499;SHT31;51087;55.718;21.122;2022-11-11T08:45:24;11.65;99.99
64499;SHT31;51087;55.718;21.122;2022-11-11T08:47:49;11.64;99.99
64499;SHT31;51087;55.718;21.122;2022-11-11T08:50:15;11.68;99.99
64499;SHT31;51087;55.718;21.122;2022-11-11T08:52:51;11.69;99.99
64499;SHT31;51087;55.718;21.122;2022-11-11T08:55:17;11.72;99.99
64499;SHT31;51087;55.718;21.122;2022-11-11T08:57:43;11.75;99.99
64499;SHT31;51087;55.718;21.122;2022-11-11T09:00:09;11.72;99.99
64499;SHT31;51087;55.718;21.122;2022-11-11T09:02:35;11.69;99.99
64499;SHT31;51087;55.718;21.122;2022-11-11T09:05:01;11.74;99.99
64499;SHT31;51087;55.718;21.122;2022-11-11T09:07:26;11.68;99.99
64499;SHT31;51087;55.718;21.122;2022-11-11T09:09:52;11.75;99.99
64499;SHT31;51087;55.718;21.122;2022-11-11T09:12:17;11.69;99.99
64499;SHT31;51087;55.718;21.122;2022-11-11T09:14:43;11.71;99.99
64499;SHT31;51087;55.718;21.122;2022-11-11T09:17:08;11.67;99.99
64499;SHT31;51087;55.718;21.122;2022-11-11T09:19:34;11.71;99.99
64499;SHT31;51087;55.718;21.122;2022-11-11T09:22:00;11.71;99.99
64499;SHT31;51087;55.718;21.122;2022-11-11T09:24:25;11.75;99.99
64499;SHT31;51087;55.718;21.122;2022-11-11T09:26:51;11.75;99.99
64499;SHT31;51087;55.718;21.122;2022-11-11T09:29:17;11.79;99.99
64499;SHT31;51087;55.718;21.122;2022-11-11T09:31:44;11.79;99.99
64499;SHT31;51087;55.718;21.122;2022-11-11T09:34:10;11.78;99.99
64499;SHT31;51087;55.718;21.122;2022-11-11T09:36:35;11.83;99.99
64499;SHT31;51087;55.718;21.122;2022-11-11T09:39:01;11.83;99.99
64499;SHT31;51087;55.718;21.122;2022-11-11T09:44:59;11.88;99.99
64499;SHT31;51087;55.718;21.122;2022-11-11T09:47:54;11.86;99.99
64499;SHT31;51087;55.718;21.122;2022-11-11T09:50:25;11.88;99.99
64499;SHT31;51087;55.718;21.122;2022-11-11T09:53:09;11.90;99.99
64499;SHT31;51087;55.718;21.122;2022-11-11T09:55:39;11.89;99.99
64499;SHT31;51087;55.718;21.122;2022-11-11T09:58:28;11.92;99.99
64499;SHT31;51087;55.718;21.122;2022-11-11T10:01:58;11.89;99.99
64499;SHT31;51087;55.718;21.122;2022-11-11T10:07:13;11.93;99.99
64499;SHT31;51087;55.718;21.122;2022-11-11T10:09:53;11.95;99.99
64499;SHT31;51087;55.718;21.122;2022-11-11T10:12:25;11.92;99.99
64499;SHT31;51087;55.718;21.122;2022-11-11T10:14:57;11.90;99.99
64499;SHT31;51087;55.718;21.122;2022-11-11T10:18:35;11.93;99.99
64499;SHT31;51087;55.718;21.122;2022-11-11T10:20:54;11.95;99.99
64499;SHT31;51087;55.718;21.122;2022-11-11T10:23:25;11.95;99.99
64499;SHT31;51087;55.718;21.122;2022-11-11T10:25:55;11.95;99.99
64499;SHT31;51087;55.718;21.122;2022-11-11T10:28:26;11.95;99.99
64499;SHT31;51087;55.718;21.122;2022-11-11T10:30:54;11.95;99.99
64499;SHT31;51087;55.718;21.122;2022-11-11T10:33:27;11.96;99.99
64499;SHT31;51087;55.718;21.122;2022-11-11T10:35:55;11.95;99.99
64499;SHT31;51087;55.718;21.122;2022-11-11T10:41:22;11.93;99.99
64499;SHT31;51087;55.718;21.122;2022-11-11T10:43:50;11.95;99.99
64499;SHT31;51087;55.718;21.122;2022-11-11T10:46:23;11.96;99.99
64499;SHT31;51087;55.718;21.122;2022-11-11T10:48:59;11.93;99.99
64499;SHT31;51087;55.718;21.122;2022-11-11T10:51:30;11.93;99.99
64499;SHT31;51087;55.718;21.122;2022-11-11T10:54:55;11.93;99.99
64499;SHT31;51087;55.718;21.122;2022-11-11T10:59:38;11.89;99.99
64499;SHT31;51087;55.718;21.122;2022-11-11T11:02:25;11.90;99.99
64499;SHT31;51087;55.718;21.122;2022-11-11T11:05:23;11.88;99.99
64499;SHT31;51087;55.718;21.122;2022-11-11T11:08:16;11.89;99.99
64499;SHT31;51087;55.718;21.122;2022-11-11T11:10:51;11.88;99.99
64499;SHT31;51087;55.718;21.122;2022-11-11T11:13:31;11.93;99.99
64499;SHT31;51087;55.718;21.122;2022-11-11T11:16:03;11.90;99.99
64499;SHT31;51087;55.718;21.122;2022-11-11T11:18:30;11.95;99.99
64499;SHT31;51087;55.718;21.122;2022-11-11T11:21:01;11.98;99.99
64499;SHT31;51087;55.718;21.122;2022-11-11T11:23:42;12.00;99.99
64499;SHT31;51087;55.718;21.122;2022-11-11T11:26:10;12.06;99.99
64499;SHT31;51087;55.718;21.122;2022-11-11T11:28:52;12.07;99.99
64499;SHT31;51087;55.718;21.122;2022-11-11T11:31:33;12.07;99.99
64499;SHT31;51087;55.718;21.122;2022-11-11T11:33:59;12.07;99.99
64499;SHT31;51087;55.718;21.122;2022-11-11T11:36:25;12.00;99.99
64499;SHT31;51087;55.718;21.122;2022-11-11T11:38:50;11.98;99.99
64499;SHT31;51087;55.718;21.122;2022-11-11T11:41:17;11.96;99.99
64499;SHT31;51087;55.718;21.122;2022-11-11T11:43:43;11.98;99.99
64499;SHT31;51087;55.718;21.122;2022-11-11T11:46:37;11.98;99.99
64499;SHT31;51087;55.718;21.122;2022-11-11T11:51:51;11.98;99.99
64499;SHT31;51087;55.718;21.122;2022-11-11T11:55:04;11.99;99.99
64499;SHT31;51087;55.718;21.122;2022-11-11T12:00:22;11.98;99.99
64499;SHT31;51087;55.718;21.122;2022-11-11T12:03:01;11.96;99.99
64499;SHT31;51087;55.718;21.122;2022-11-11T12:05:56;11.98;99.99
64499;SHT31;51087;55.718;21.122;2022-11-11T12:11:17;12.05;99.99
64499;SHT31;51087;55.718;21.122;2022-11-11T12:14:02;12.09;99.99
64499;SHT31;51087;55.718;21.122;2022-11-11T12:16:35;12.12;99.98
64499;SHT31;51087;55.718;21.122;2022-11-11T12:22:07;12.15;99.90
64499;SHT31;51087;55.718;21.122;2022-11-11T12:39:15;12.22;99.54
64499;SHT31;51087;55.718;21.122;2022-11-11T12:44:17;12.22;99.67
64499;SHT31;51087;55.718;21.122;2022-11-11T12:49:55;12.22;99.73
64499;SHT31;51087;55.718;21.122;2022-11-11T13:00:20;12.23;99.76
64499;SHT31;51087;55.718;21.122;2022-11-11T13:15:47;12.23;99.76
64499;SHT31;51087;55.718;21.122;2022-11-11T13:18:23;12.23;99.71
64499;SHT31;51087;55.718;21.122;2022-11-11T13:20:57;12.23;99.68
64499;SHT31;51087;55.718;21.122;2022-11-11T13:23:23;12.27;99.64
64499;SHT31;51087;55.718;21.122;2022-11-11T13:25:54;12.26;99.64
64499;SHT31;51087;55.718;21.122;2022-11-11T13:28:25;12.23;99.53
64499;SHT31;51087;55.718;21.122;2022-11-11T13:33:43;12.23;99.71
64499;SHT31;51087;55.718;21.122;2022-11-11T13:36:13;12.26;99.78
64499;SHT31;51087;55.718;21.122;2022-11-11T13:38:48;12.25;99.92
64499;SHT31;51087;55.718;21.122;2022-11-11T13:41:37;12.22;99.99
64499;SHT31;51087;55.718;21.122;2022-11-11T13:44:06;12.22;99.92
64499;SHT31;51087;55.718;21.122;2022-11-11T13:46:39;12.20;99.84
64499;SHT31;51087;55.718;21.122;2022-11-11T13:49:20;12.20;99.86
64499;SHT31;51087;55.718;21.122;2022-11-11T13:51:59;12.19;99.98
64499;SHT31;51087;55.718;21.122;2022-11-11T13:57:12;12.19;99.99
64499;SHT31;51087;55.718;21.122;2022-11-11T13:59:41;12.20;99.85
64499;SHT31;51087;55.718;21.122;2022-11-11T14:12:43;12.19;99.99
64499;SHT31;51087;55.718;21.122;2022-11-11T14:17:57;12.22;99.96
64499;SHT31;51087;55.718;21.122;2022-11-11T14:22:54;12.20;99.99
64499;SHT31;51087;55.718;21.122;2022-11-11T14:25:39;12.16;99.99
64499;SHT31;51087;55.718;21.122;2022-11-11T14:28:28;12.17;99.99
64499;SHT31;51087;55.718;21.122;2022-11-11T14:34:05;12.16;99.99
64499;SHT31;51087;55.718;21.122;2022-11-11T14:36:55;12.19;99.99
64499;SHT31;51087;55.718;21.122;2022-11-11T14:39:38;12.19;99.99
64499;SHT31;51087;55.718;21.122;2022-11-11T14:45:02;12.13;99.99
64499;SHT31;51087;55.718;21.122;2022-11-11T14:47:34;12.16;99.99
64499;SHT31;51087;55.718;21.122;2022-11-11T14:50:00;12.20;99.99
64499;SHT31;51087;55.718;21.122;2022-11-11T14:57:43;12.19;99.99
64499;SHT31;51087;55.718;21.122;2022-11-11T15:00:22;12.20;99.99
64499;SHT31;51087;55.718;21.122;2022-11-11T15:03:09;12.22;99.99
64499;SHT31;51087;55.718;21.122;2022-11-11T15:05:53;12.20;99.99
64499;SHT31;51087;55.718;21.122;2022-11-11T15:19:38;12.23;99.99
64499;SHT31;51087;55.718;21.122;2022-11-11T15:22:33;12.20;99.99
64499;SHT31;51087;55.718;21.122;2022-11-11T15:28:18;12.20;99.99
64499;SHT31;51087;55.718;21.122;2022-11-11T15:31:09;12.20;99.99
64499;SHT31;51087;55.718;21.122;2022-11-11T15:36:58;12.19;99.99
64499;SHT31;51087;55.718;21.122;2022-11-11T15:39:48;12.20;99.99
64499;SHT31;51087;55.718;21.122;2022-11-11T15:44:54;12.23;99.99
64499;SHT31;51087;55.718;21.122;2022-11-11T15:47:20;12.26;99.99
64499;SHT31;51087;55.718;21.122;2022-11-11T15:49:48;12.30;99.99
64499;SHT31;51087;55.718;21.122;2022-11-11T15:52:32;12.30;99.99
64499;SHT31;51087;55.718;21.122;2022-11-11T15:54:59;12.27;99.99
64499;SHT31;51087;55.718;21.122;2022-11-11T15:57:30;12.29;99.99
64499;SHT31;51087;55.718;21.122;2022-11-11T15:59:58;12.27;99.99
64499;SHT31;51087;55.718;21.122;2022-11-11T16:02:33;12.29;99.99
64499;SHT31;51087;55.718;21.122;2022-11-11T16:05:06;12.26;99.99
64499;SHT31;51087;55.718;21.122;2022-11-11T16:07:38;12.25;99.99
64499;SHT31;51087;55.718;21.122;2022-11-11T16:10:14;12.25;99.99
64499;SHT31;51087;55.718;21.122;2022-11-11T16:12:54;12.27;99.99
64499;SHT31;51087;55.718;21.122;2022-11-11T16:17:51;12.27;99.99
64499;SHT31;51087;55.718;21.122;2022-11-11T16:20:28;12.32;99.99
64499;SHT31;51087;55.718;21.122;2022-11-11T16:22:58;12.27;99.99
64499;SHT31;51087;55.718;21.122;2022-11-11T16:25:25;12.29;99.99
64499;SHT31;51087;55.718;21.122;2022-11-11T16:27:51;12.27;99.99
64499;SHT31;51087;55.718;21.122;2022-11-11T16:30:27;12.30;99.99
64499;SHT31;51087;55.718;21.122;2022-11-11T16:32:54;12.27;99.99
64499;SHT31;51087;55.718;21.122;2022-11-11T16:35:30;12.26;99.99
64499;SHT31;51087;55.718;21.122;2022-11-11T16:37:55;12.25;99.99
64499;SHT31;51087;55.718;21.122;2022-11-11T16:40:41;12.23;99.99
64499;SHT31;51087;55.718;21.122;2022-11-11T16:43:33;12.26;99.99
64499;SHT31;51087;55.718;21.122;2022-11-11T16:46:08;12.26;99.99
64499;SHT31;51087;55.718;21.122;2022-11-11T16:48:47;12.25;99.99
64499;SHT31;51087;55.718;21.122;2022-11-11T16:51:23;12.27;99.99
64499;SHT31;51087;55.718;21.122;2022-11-11T16:54:05;12.25;99.99
64499;SHT31;51087;55.718;21.122;2022-11-11T16:56:32;12.27;99.99
64499;SHT31;51087;55.718;21.122;2022-11-11T16:59:16;12.27;99.99
64499;SHT31;51087;55.718;21.122;2022-11-11T17:01:44;12.27;99.99
64499;SHT31;51087;55.718;21.122;2022-11-11T17:04:11;12.25;99.99
64499;SHT31;51087;55.718;21.122;2022-11-11T17:06:57;12.25;99.99
64499;SHT31;51087;55.718;21.122;2022-11-11T17:09:33;12.30;99.99
64499;SHT31;51087;55.718;21.122;2022-11-11T17:12:00;12.32;99.99
64499;SHT31;51087;55.718;21.122;2022-11-11T17:14:27;12.36;99.99
64499;SHT31;51087;55.718;21.122;2022-11-11T17:16:53;12.40;99.99
64499;SHT31;51087;55.718;21.122;2022-11-11T17:19:18;12.40;99.99
64499;SHT31;51087;55.718;21.122;2022-11-11T17:21:46;12.43;99.99
64499;SHT31;51087;55.718;21.122;2022-11-11T17:24:11;12.41;99.99
64499;SHT31;51087;55.718;21.122;2022-11-11T17:26:39;12.40;99.99
64499;SHT31;51087;55.718;21.122;2022-11-11T17:29:04;12.43;99.99
64499;SHT31;51087;55.718;21.122;2022-11-11T17:31:31;12.41;99.99
64499;SHT31;51087;55.718;21.122;2022-11-11T17:33:56;12.40;99.99
64499;SHT31;51087;55.718;21.122;2022-11-11T17:36:21;12.38;99.99
64499;SHT31;51087;55.718;21.122;2022-11-11T17:38:47;12.38;99.99
64499;SHT31;51087;55.718;21.122;2022-11-11T17:41:13;12.36;99.99
64499;SHT31;51087;55.718;21.122;2022-11-11T17:43:38;12.36;99.99
64499;SHT31;51087;55.718;21.122;2022-11-11T17:46:04;12.33;99.99
64499;SHT31;51087;55.718;21.122;2022-11-11T17:48:30;12.32;99.99
64499;SHT31;51087;55.718;21.122;2022-11-11T17:50:56;12.27;99.99